createdAt,value
2023-01-29T00:01:23.671Z,78.27
2023-01-29T00:06:35.914Z,78.10
2023-01-29T00:11:51.401Z,77.51
2023-01-29T00:17:09.588Z,77.18
2023-01-29T00:22:24.756Z,77.54
2023-01-29T00:27:38.650Z,78.01
2023-01-29T00:33:00.990Z,77.99
2023-01-29T00:38:15.691Z,78.12
2023-01-29T00:43:46.703Z,77.77
2023-01-29T00:49:05.086Z,77.69
2023-01-29T00:54:21.496Z,78.08
2023-01-29T00:59:37.833Z,78.17
2023-01-29T01:04:56.295Z,77.81
2023-01-29T01:10:26.434Z,78.39
2023-01-29T01:15:44.326Z,78.50
2023-01-29T01:21:05.145Z,78.34
2023-01-29T01:26:21.475Z,78.93
2023-01-29T01:31:39.414Z,79.08
2023-01-29T01:36:59.805Z,78.88
2023-01-29T01:42:19.632Z,79.23
2023-01-29T01:47:45.039Z,79.52
2023-01-29T01:53:09.339Z,79.59
2023-01-29T01:58:24.178Z,79.74
2023-01-29T02:03:49.528Z,79.67
2023-01-29T02:09:21.283Z,80.08
2023-01-29T02:14:28.539Z,79.79
2023-01-29T02:20:05.252Z,79.93
2023-01-29T02:26:12.496Z,80.09
2023-01-29T02:31:33.528Z,79.79
2023-01-29T02:36:53.012Z,80.21
2023-01-29T02:42:12.998Z,80.33
2023-01-29T02:47:34.974Z,80.47
2023-01-29T02:52:59.291Z,80.38
2023-01-29T02:58:23.540Z,80.36
2023-01-29T03:03:41.320Z,80.44
2023-01-29T03:08:58.550Z,80.60
2023-01-29T03:14:18.504Z,80.32
2023-01-29T03:19:40.226Z,80.88
2023-01-29T03:25:23.716Z,81.09
2023-01-29T03:30:57.623Z,80.98
2023-01-29T03:36:47.106Z,81.04
2023-01-29T03:42:06.560Z,81.36
2023-01-29T03:47:27.964Z,81.17
2023-01-29T03:52:53.293Z,80.96
2023-01-29T03:58:15.129Z,81.26
2023-01-29T04:03:37.590Z,81.44
2023-01-29T04:08:58.811Z,81.02
2023-01-29T04:14:12.724Z,81.30
2023-01-29T04:19:28.744Z,81.03
2023-01-29T04:24:49.932Z,81.30
2023-01-29T04:30:18.712Z,81.36
2023-01-29T04:35:45.124Z,81.16
2023-01-29T04:41:09.464Z,80.95
2023-01-29T04:46:29.531Z,81.00
2023-01-29T04:51:53.302Z,80.96
2023-01-29T04:57:17.984Z,80.91
2023-01-29T05:02:34.740Z,81.28
2023-01-29T05:07:49.768Z,81.24
2023-01-29T05:13:08.790Z,81.01
2023-01-29T05:18:21.772Z,81.53
2023-01-29T05:23:38.297Z,81.19
2023-01-29T05:28:55.463Z,81.07
2023-01-29T05:34:09.664Z,81.13
2023-01-29T05:39:24.321Z,81.07
2023-01-29T05:44:41.601Z,81.07
2023-01-29T05:49:53.141Z,81.30
2023-01-29T05:55:02.449Z,81.59
2023-01-29T06:00:16.020Z,81.62
2023-01-29T06:05:25.869Z,81.61
2023-01-29T06:10:36.435Z,81.29
2023-01-29T06:15:50.710Z,81.46
2023-01-29T06:21:04.820Z,81.26
2023-01-29T06:26:19.097Z,81.78
2023-01-29T06:31:38.890Z,81.56
2023-01-29T06:36:54.881Z,81.72
2023-01-29T06:42:06.637Z,81.48
2023-01-29T06:47:20.579Z,81.77
2023-01-29T06:52:30.632Z,81.78
2023-01-29T06:57:42.666Z,81.77
2023-01-29T07:02:58.186Z,81.85
2023-01-29T07:08:11.517Z,81.88
2023-01-29T07:13:32.596Z,81.88
2023-01-29T07:18:41.633Z,81.62
2023-01-29T07:23:50.521Z,81.77
2023-01-29T07:29:03.355Z,81.75
2023-01-29T07:34:17.523Z,81.91
2023-01-29T07:39:32.975Z,81.70
2023-01-29T07:44:46.142Z,82.26
2023-01-29T07:50:03.730Z,81.88
2023-01-29T07:55:18.470Z,81.82
2023-01-29T08:00:32.659Z,81.74
2023-01-29T08:05:47.034Z,82.17
2023-01-29T08:11:02.742Z,82.23
2023-01-29T08:16:12.772Z,82.38
2023-01-29T08:21:25.002Z,82.41
2023-01-29T08:26:39.343Z,82.61
2023-01-29T08:31:54.545Z,82.69
2023-01-29T08:37:10.919Z,82.54
2023-01-29T08:42:24.622Z,82.77
2023-01-29T08:47:38.885Z,83.08
2023-01-29T08:52:53.794Z,83.66
2023-01-29T08:58:09.885Z,84.70
2023-01-29T09:03:20.402Z,85.01
2023-01-29T09:08:41.076Z,84.88
2023-01-29T09:13:56.686Z,85.16
2023-01-29T09:19:10.985Z,85.51
2023-01-29T09:24:28.269Z,85.87
2023-01-29T09:29:41.312Z,85.97
2023-01-29T09:34:49.045Z,86.21
2023-01-29T09:40:04.035Z,86.20
2023-01-29T09:45:25.856Z,86.44
2023-01-29T09:50:45.785Z,86.34
2023-01-29T09:56:08.209Z,86.24
2023-01-29T10:01:40.178Z,86.16
2023-01-29T10:07:19.995Z,86.07
2023-01-29T10:13:00.042Z,85.82
2023-01-29T10:18:56.776Z,85.71
2023-01-29T10:24:24.116Z,85.79
2023-01-29T10:29:41.468Z,85.66
2023-01-29T10:35:00.097Z,85.78
2023-01-29T10:40:29.068Z,85.71
2023-01-29T10:45:51.776Z,85.60
2023-01-29T10:51:13.609Z,85.44
2023-01-29T10:56:51.183Z,85.49
2023-01-29T11:02:16.043Z,85.50
2023-01-29T11:07:29.487Z,85.61
2023-01-29T11:12:48.515Z,85.45
2023-01-29T11:18:18.240Z,85.73
2023-01-29T11:23:33.793Z,85.74
2023-01-29T11:28:49.504Z,85.54
2023-01-29T11:34:21.436Z,85.36
2023-01-29T11:39:36.119Z,85.26
2023-01-29T11:44:53.251Z,85.58
2023-01-29T11:50:26.459Z,85.81
2023-01-29T11:55:51.201Z,85.42
2023-01-29T12:01:05.215Z,85.53
2023-01-29T12:06:27.835Z,85.43
2023-01-29T12:11:41.854Z,85.40
2023-01-29T12:17:01.424Z,85.59
2023-01-29T12:22:28.023Z,85.57
2023-01-29T12:27:55.335Z,85.67
2023-01-29T12:33:20.891Z,85.56
2023-01-29T12:38:39.951Z,85.72
2023-01-29T12:44:00.601Z,86.09
2023-01-29T12:49:18.483Z,86.17
2023-01-29T12:54:42.709Z,86.05
2023-01-29T13:00:03.033Z,86.26
2023-01-29T13:05:26.894Z,85.94
2023-01-29T13:10:46.008Z,86.21
2023-01-29T13:16:01.362Z,86.30
2023-01-29T13:21:23.785Z,86.66
2023-01-29T13:26:50.704Z,86.94
2023-01-29T13:32:07.696Z,87.10
2023-01-29T13:37:29.895Z,87.54
2023-01-29T13:42:48.846Z,87.75
2023-01-29T13:48:26.495Z,87.72
2023-01-29T13:53:47.446Z,87.45
2023-01-29T13:59:04.911Z,87.74
2023-01-29T14:04:33.818Z,87.42
2023-01-29T14:10:20.941Z,87.24
2023-01-29T14:15:42.131Z,87.65
2023-01-29T14:21:04.362Z,87.31
2023-01-29T14:26:46.017Z,87.44
2023-01-29T14:32:00.530Z,87.57
2023-01-29T14:37:29.497Z,87.64
2023-01-29T14:42:43.842Z,87.21
2023-01-29T14:48:05.862Z,87.69
2023-01-29T14:53:30.910Z,87.25
2023-01-29T14:58:45.694Z,87.41
2023-01-29T15:03:57.733Z,87.52
2023-01-29T15:09:15.606Z,87.55
2023-01-29T15:14:35.069Z,88.00
2023-01-29T15:19:48.857Z,87.52
2023-01-29T15:25:16.686Z,87.92
2023-01-29T15:30:36.251Z,88.39
2023-01-29T15:35:53.722Z,87.98
2023-01-29T15:41:20.928Z,88.12
2023-01-29T15:46:34.985Z,88.19
2023-01-29T15:51:45.771Z,87.98
2023-01-29T15:56:58.687Z,88.08
2023-01-29T16:02:42.794Z,88.40
2023-01-29T16:07:55.261Z,88.18
2023-01-29T16:13:05.941Z,88.23
2023-01-29T16:18:26.675Z,88.25
2023-01-29T16:23:46.991Z,88.00
2023-01-29T16:28:56.950Z,88.56
2023-01-29T16:34:18.609Z,88.74
2023-01-29T16:39:35.008Z,88.69
2023-01-29T16:44:48.881Z,88.83
2023-01-29T16:50:03.099Z,88.82
2023-01-29T16:55:29.366Z,88.79
2023-01-29T17:00:40.846Z,88.70
2023-01-29T17:05:51.847Z,88.95
2023-01-29T17:11:08.590Z,88.98
2023-01-29T17:16:30.557Z,89.14
2023-01-29T17:21:41.883Z,89.10
2023-01-29T17:26:52.715Z,89.03
2023-01-29T17:32:02.982Z,88.88
2023-01-29T17:37:21.083Z,88.91
2023-01-29T17:42:37.691Z,88.94
2023-01-29T17:47:48.648Z,88.96
2023-01-29T17:52:58.291Z,88.71
2023-01-29T17:58:18.128Z,88.78
2023-01-29T18:03:28.372Z,88.64
2023-01-29T18:08:41.339Z,89.05
2023-01-29T18:13:52.983Z,89.02
2023-01-29T18:19:02.242Z,88.99
2023-01-29T18:24:11.034Z,88.73
2023-01-29T18:29:30.190Z,88.78
2023-01-29T18:34:39.200Z,88.77
2023-01-29T18:39:47.903Z,88.83
2023-01-29T18:45:04.614Z,88.61
2023-01-29T18:50:16.590Z,88.65
2023-01-29T18:55:27.472Z,88.83
2023-01-29T19:00:41.924Z,88.51
2023-01-29T19:05:56.619Z,88.59
2023-01-29T19:11:08.886Z,88.69
2023-01-29T19:16:21.692Z,88.38
2023-01-29T19:21:36.792Z,88.22
2023-01-29T19:26:46.957Z,88.62
2023-01-29T19:31:57.810Z,88.69
2023-01-29T19:37:07.085Z,88.85
2023-01-29T19:42:17.621Z,89.00
2023-01-29T19:47:28.773Z,89.08
2023-01-29T19:52:52.790Z,88.95
2023-01-29T19:58:01.265Z,88.96
2023-01-29T20:03:11.956Z,88.91
2023-01-29T20:08:21.560Z,88.33
2023-01-29T20:13:31.550Z,88.88
2023-01-29T20:18:43.208Z,88.87
2023-01-29T20:23:54.374Z,88.77
2023-01-29T20:29:04.552Z,89.04
2023-01-29T20:34:16.383Z,88.76
2023-01-29T20:39:27.513Z,88.86
2023-01-29T20:44:38.809Z,88.94
2023-01-29T20:49:51.389Z,88.90
2023-01-29T20:55:01.424Z,88.88
2023-01-29T21:00:21.015Z,89.27
2023-01-29T21:05:31.779Z,88.68
2023-01-29T21:10:42.476Z,88.63
2023-01-29T21:15:54.913Z,88.69
2023-01-29T21:21:05.898Z,88.66
2023-01-29T21:26:15.649Z,89.03
2023-01-29T21:31:29.337Z,89.21
2023-01-29T21:36:39.981Z,89.38
2023-01-29T21:42:06.512Z,89.64
2023-01-29T21:47:17.998Z,89.54
2023-01-29T21:52:29.928Z,89.36
2023-01-29T21:57:36.535Z,89.28
2023-01-29T22:02:44.749Z,88.71
2023-01-29T22:07:53.934Z,89.34
2023-01-29T22:13:02.808Z,89.45
2023-01-29T22:18:09.416Z,89.70
2023-01-29T22:23:17.699Z,89.66
2023-01-29T22:28:24.228Z,89.95
2023-01-29T22:33:32.021Z,89.85
2023-01-29T22:38:40.201Z,89.76
2023-01-29T22:43:47.028Z,89.84
2023-01-29T22:48:55.560Z,89.72
2023-01-29T22:54:03.865Z,89.44
2023-01-29T22:59:11.873Z,89.79
2023-01-29T23:04:21.917Z,89.56
2023-01-29T23:09:30.538Z,89.74
2023-01-29T23:14:37.017Z,89.69
2023-01-29T23:19:43.647Z,89.61
2023-01-29T23:24:51.950Z,89.51
2023-01-29T23:29:59.877Z,89.77
2023-01-29T23:35:07.799Z,89.50
2023-01-29T23:40:17.691Z,89.46
2023-01-29T23:45:25.127Z,89.45
2023-01-29T23:50:31.920Z,89.54
2023-01-29T23:55:40.707Z,89.51
